createdAt,value
2019-06-25T00:01:09.196Z,56.30
2019-06-25T00:03:38.086Z,56.40
2019-06-25T00:06:06.546Z,56.50
2019-06-25T00:08:35.014Z,56.40
2019-06-25T00:11:03.731Z,56.70
2019-06-25T00:13:32.430Z,56.90
2019-06-25T00:16:01.149Z,57.30
2019-06-25T00:18:29.862Z,57.30
2019-06-25T00:20:58.325Z,57.30
2019-06-25T00:23:27.166Z,57.60
2019-06-25T00:25:55.641Z,57.90
2019-06-25T00:28:24.124Z,58.20
2019-06-25T00:30:52.563Z,58.90
2019-06-25T00:33:21.063Z,59.60
2019-06-25T00:35:49.802Z,59.70
2019-06-25T00:38:18.584Z,60.20
2019-06-25T00:40:47.076Z,60.00
2019-06-25T00:43:15.802Z,60.40
2019-06-25T00:45:44.356Z,60.20
2019-06-25T00:48:12.812Z,60.20
2019-06-25T00:50:41.297Z,60.10
2019-06-25T00:53:10.187Z,60.10
2019-06-25T00:55:38.898Z,60.50
2019-06-25T00:58:07.799Z,60.20
2019-06-25T01:00:36.745Z,60.40
2019-06-25T01:03:07.234Z,60.00
2019-06-25T01:05:35.980Z,60.10
2019-06-25T01:08:04.413Z,60.10
2019-06-25T01:10:32.932Z,60.30
2019-06-25T01:13:01.468Z,60.30
2019-06-25T01:15:30.326Z,60.40
2019-06-25T01:17:58.781Z,60.50
2019-06-25T01:20:27.482Z,60.30
2019-06-25T01:22:56.161Z,60.60
2019-06-25T01:25:25.004Z,60.20
2019-06-25T01:27:53.488Z,61.00
2019-06-25T01:30:29.246Z,60.70
2019-06-25T01:32:53.063Z,61.20
2019-06-25T01:35:21.865Z,61.40
2019-06-25T01:37:50.743Z,61.40
2019-06-25T01:40:19.237Z,61.50
2019-06-25T01:42:48.045Z,60.60
2019-06-25T01:45:17.093Z,61.70
2019-06-25T01:47:45.996Z,62.10
2019-06-25T01:50:15.754Z,62.30
2019-06-25T01:52:44.546Z,62.40
2019-06-25T01:55:13.395Z,62.50
2019-06-25T01:57:42.181Z,62.20
2019-06-25T02:00:11.866Z,62.40
2019-06-25T02:02:40.413Z,62.40
2019-06-25T02:05:09.996Z,62.40
2019-06-25T02:07:38.441Z,62.50
2019-06-25T02:10:08.232Z,62.30
2019-06-25T02:12:36.977Z,62.80
2019-06-25T02:15:09.642Z,62.90
2019-06-25T02:17:38.230Z,63.30
2019-06-25T02:20:08.344Z,63.10
2019-06-25T02:22:37.197Z,63.20
2019-06-25T02:25:06.911Z,63.10
2019-06-25T02:27:35.424Z,63.20
2019-06-25T02:30:09.354Z,63.40
2019-06-25T02:32:37.809Z,63.40
2019-06-25T02:35:08.324Z,63.30
2019-06-25T02:37:37.155Z,63.90
2019-06-25T02:40:08.773Z,63.20
2019-06-25T02:42:37.420Z,63.10
2019-06-25T02:45:08.022Z,63.20
2019-06-25T02:47:36.629Z,63.20
2019-06-25T02:50:09.085Z,63.00
2019-06-25T02:52:37.502Z,62.70
2019-06-25T02:55:06.686Z,63.40
2019-06-25T02:57:35.552Z,62.90
2019-06-25T03:00:10.707Z,63.30
2019-06-25T03:02:37.249Z,64.00
2019-06-25T03:05:09.525Z,64.00
2019-06-25T03:07:38.193Z,64.00
2019-06-25T03:10:07.562Z,63.80
2019-06-25T03:12:36.053Z,63.70
2019-06-25T03:15:07.342Z,63.30
2019-06-25T03:17:36.177Z,63.40
2019-06-25T03:20:06.947Z,63.10
2019-06-25T03:22:35.495Z,63.20
2019-06-25T03:25:05.674Z,63.40
2019-06-25T03:27:34.096Z,63.20
2019-06-25T03:30:02.723Z,63.50
2019-06-25T03:32:31.418Z,63.70
2019-06-25T03:35:00.356Z,63.40
2019-06-25T03:37:28.859Z,63.10
2019-06-25T03:39:57.599Z,63.50
2019-06-25T03:42:26.100Z,63.00
2019-06-25T03:44:54.908Z,62.20
2019-06-25T03:47:23.752Z,62.30
2019-06-25T03:49:52.666Z,62.00
2019-06-25T03:52:21.088Z,62.10
2019-06-25T03:54:49.553Z,62.30
2019-06-25T03:57:18.322Z,62.40
2019-06-25T03:59:46.737Z,62.30
2019-06-25T04:02:17.794Z,62.00
2019-06-25T04:04:45.737Z,61.70
2019-06-25T04:07:14.495Z,61.60
2019-06-25T04:09:42.902Z,61.50
2019-06-25T04:12:11.342Z,61.20
2019-06-25T04:14:39.775Z,62.30
2019-06-25T04:17:08.268Z,61.90
2019-06-25T04:19:36.748Z,61.80
2019-06-25T04:22:05.386Z,61.40
2019-06-25T04:24:33.806Z,61.60
2019-06-25T04:27:25.694Z,61.50
2019-06-25T04:29:54.131Z,61.50
2019-06-25T04:32:32.626Z,61.50
2019-06-25T04:34:52.713Z,61.30
2019-06-25T04:37:21.204Z,60.90
2019-06-25T04:39:49.647Z,60.90
2019-06-25T04:42:18.168Z,60.70
2019-06-25T04:44:46.712Z,61.00
2019-06-25T04:47:15.528Z,62.30
2019-06-25T04:49:44.280Z,61.80
2019-06-25T04:52:13.072Z,61.70
2019-06-25T04:54:41.570Z,61.50
2019-06-25T04:57:10.037Z,61.10
2019-06-25T04:59:38.539Z,61.30
2019-06-25T05:02:07.000Z,61.40
2019-06-25T05:04:35.540Z,60.40
2019-06-25T05:07:04.038Z,60.20
2019-06-25T05:09:32.557Z,60.30
2019-06-25T05:12:00.999Z,59.90
2019-06-25T05:14:30.745Z,59.70
2019-06-25T05:17:00.041Z,59.90
2019-06-25T05:19:28.529Z,59.30
2019-06-25T05:21:57.270Z,58.20
2019-06-25T05:24:26.012Z,57.20
2019-06-25T05:26:54.581Z,55.10
2019-06-25T05:29:23.416Z,53.80
2019-06-25T05:31:52.159Z,52.30
2019-06-25T05:34:20.886Z,51.70
2019-06-25T05:36:51.389Z,51.10
2019-06-25T05:39:19.921Z,50.40
2019-06-25T05:41:48.597Z,49.70
2019-06-25T05:44:17.028Z,48.60
2019-06-25T05:46:45.439Z,48.20
2019-06-25T05:49:13.990Z,46.50
2019-06-25T05:51:42.397Z,46.90
2019-06-25T05:54:10.871Z,46.50
2019-06-25T05:56:39.657Z,46.50
2019-06-25T05:59:08.129Z,45.60
2019-06-25T06:01:36.622Z,45.70
2019-06-25T06:04:05.071Z,45.80
2019-06-25T06:06:33.669Z,46.10
2019-06-25T06:09:02.699Z,46.20
2019-06-25T06:11:31.157Z,45.30
2019-06-25T06:13:59.951Z,45.20
2019-06-25T06:16:28.474Z,44.30
2019-06-25T06:18:57.226Z,44.10
2019-06-25T06:21:25.792Z,42.60
2019-06-25T06:23:54.243Z,42.80
2019-06-25T06:26:22.763Z,41.70
2019-06-25T06:28:51.369Z,41.80
2019-06-25T06:31:19.895Z,40.50
2019-06-25T06:33:50.399Z,40.40
2019-06-25T06:36:18.610Z,39.30
2019-06-25T06:38:47.068Z,39.90
2019-06-25T06:41:15.601Z,39.30
2019-06-25T06:43:44.163Z,38.60
2019-06-25T06:46:15.348Z,38.20
2019-06-25T06:48:42.874Z,39.00
2019-06-25T06:51:11.617Z,39.60
2019-06-25T06:53:40.193Z,39.50
2019-06-25T06:56:08.788Z,40.00
2019-06-25T06:58:37.641Z,39.50
2019-06-25T07:01:06.158Z,38.50
2019-06-25T07:03:35.150Z,39.00
2019-06-25T07:06:04.236Z,40.50
2019-06-25T07:08:32.961Z,39.10
2019-06-25T07:11:01.600Z,38.60
2019-06-25T07:13:30.793Z,38.10
2019-06-25T07:15:59.369Z,37.80
2019-06-25T07:18:28.130Z,38.30
2019-06-25T07:20:56.649Z,38.90
2019-06-25T07:23:25.573Z,38.30
2019-06-25T07:25:54.475Z,37.70
2019-06-25T07:28:23.029Z,36.90
2019-06-25T07:30:52.849Z,36.50
2019-06-25T07:33:21.599Z,36.30
2019-06-25T07:35:50.091Z,36.70
2019-06-25T07:38:18.589Z,36.80
2019-06-25T07:40:47.052Z,36.80
2019-06-25T07:43:15.708Z,36.50
2019-06-25T07:45:44.385Z,35.60
2019-06-25T07:48:13.708Z,36.60
2019-06-25T07:50:43.373Z,36.00
2019-06-25T07:53:13.291Z,35.30
2019-06-25T07:55:43.376Z,34.70
2019-06-25T07:58:12.260Z,34.40
2019-06-25T08:00:41.093Z,34.20
2019-06-25T08:03:09.778Z,34.40
2019-06-25T08:05:38.676Z,34.40
2019-06-25T08:08:07.115Z,33.00
2019-06-25T08:10:35.636Z,32.50
2019-06-25T08:13:04.509Z,33.00
2019-06-25T08:15:33.030Z,33.00
2019-06-25T08:18:01.478Z,33.30
2019-06-25T08:20:30.376Z,32.60
2019-06-25T08:22:59.169Z,32.60
2019-06-25T08:25:27.643Z,31.30
2019-06-25T08:27:56.152Z,31.00
2019-06-25T08:30:24.770Z,31.30
2019-06-25T08:32:53.704Z,31.60
2019-06-25T08:35:22.138Z,30.90
2019-06-25T08:37:50.597Z,30.70
2019-06-25T08:40:20.546Z,31.70
2019-06-25T08:42:49.090Z,29.90
2019-06-25T08:45:22.135Z,31.90
2019-06-25T08:47:50.918Z,31.20
2019-06-25T08:50:19.849Z,31.60
2019-06-25T08:52:58.166Z,31.90
2019-06-25T08:55:18.792Z,33.00
2019-06-25T08:57:47.850Z,33.00
2019-06-25T09:00:17.382Z,32.00
2019-06-25T09:02:45.956Z,30.60
2019-06-25T09:05:15.535Z,30.40
2019-06-25T09:07:44.137Z,31.20
2019-06-25T09:10:14.084Z,30.80
2019-06-25T09:12:43.152Z,30.90
2019-06-25T09:15:12.735Z,31.40
2019-06-25T09:17:41.300Z,30.50
2019-06-25T09:20:11.222Z,29.50
2019-06-25T09:22:39.744Z,29.80
2019-06-25T09:25:09.106Z,29.50
2019-06-25T09:27:37.573Z,29.20
2019-06-25T09:30:12.622Z,29.20
2019-06-25T09:32:41.175Z,29.50
2019-06-25T09:35:16.131Z,29.10
2019-06-25T09:37:41.454Z,29.00
2019-06-25T09:40:08.820Z,28.00
2019-06-25T09:42:36.232Z,28.90
2019-06-25T09:45:03.724Z,28.20
2019-06-25T09:47:33.120Z,28.40
2019-06-25T09:50:02.444Z,26.90
2019-06-25T09:52:31.378Z,26.50
2019-06-25T09:54:59.888Z,26.60
2019-06-25T09:57:28.415Z,26.70
2019-06-25T09:59:56.879Z,26.80
2019-06-25T10:02:25.803Z,27.60
2019-06-25T10:04:54.371Z,27.60
2019-06-25T10:07:22.863Z,26.80
2019-06-25T10:09:51.428Z,26.60
2019-06-25T10:12:19.984Z,26.20
2019-06-25T10:14:48.578Z,26.40
2019-06-25T10:17:17.341Z,26.50
2019-06-25T10:19:45.848Z,25.70
2019-06-25T10:22:14.325Z,26.00
2019-06-25T10:24:43.043Z,26.40
2019-06-25T10:27:11.472Z,26.70
2019-06-25T10:29:42.481Z,26.50
2019-06-25T10:32:10.890Z,26.50
2019-06-25T10:34:39.389Z,26.60
2019-06-25T10:37:08.144Z,27.30
2019-06-25T10:39:36.932Z,26.20
2019-06-25T10:42:05.459Z,26.90
2019-06-25T10:44:33.942Z,26.60
2019-06-25T10:47:02.490Z,27.10
2019-06-25T10:49:31.007Z,27.00
2019-06-25T10:51:59.446Z,27.10
2019-06-25T10:54:27.897Z,27.80
2019-06-25T10:56:56.624Z,28.40
2019-06-25T10:59:25.417Z,28.30
2019-06-25T11:02:02.912Z,30.00
2019-06-25T11:04:31.356Z,30.80
2019-06-25T11:07:07.209Z,30.90
2019-06-25T11:09:30.061Z,30.70
2019-06-25T11:11:58.502Z,32.30
2019-06-25T11:14:27.699Z,35.30
2019-06-25T11:16:56.397Z,34.20
2019-06-25T11:19:24.893Z,35.00
2019-06-25T11:21:53.388Z,35.50
2019-06-25T11:24:22.234Z,35.00
2019-06-25T11:26:50.732Z,35.30
2019-06-25T11:29:19.302Z,36.70
2019-06-25T11:31:48.004Z,35.70
2019-06-25T11:34:16.552Z,35.80
2019-06-25T11:36:45.095Z,36.50
2019-06-25T11:39:13.940Z,36.50
2019-06-25T11:41:42.553Z,36.60
2019-06-25T11:44:11.002Z,37.10
2019-06-25T11:46:39.584Z,35.80
2019-06-25T11:49:08.388Z,35.50
2019-06-25T11:51:37.175Z,35.90
2019-06-25T11:54:05.803Z,36.20
2019-06-25T11:56:34.310Z,36.30
2019-06-25T11:59:02.821Z,35.20
2019-06-25T12:01:31.606Z,35.20
2019-06-25T12:04:00.060Z,35.30
2019-06-25T12:06:35.076Z,34.60
2019-06-25T12:08:58.751Z,34.40
2019-06-25T12:11:27.487Z,35.20
2019-06-25T12:13:55.937Z,34.70
2019-06-25T12:16:24.381Z,33.90
2019-06-25T12:18:53.211Z,33.00
2019-06-25T12:21:21.676Z,33.40
2019-06-25T12:23:50.092Z,33.90
2019-06-25T12:26:18.893Z,33.50
2019-06-25T12:28:47.383Z,34.30
2019-06-25T12:31:16.276Z,34.10
2019-06-25T12:33:45.442Z,34.20
2019-06-25T12:36:13.904Z,33.20
2019-06-25T12:38:42.473Z,32.00
2019-06-25T12:41:10.901Z,31.20
2019-06-25T12:43:39.341Z,31.10
2019-06-25T12:46:08.043Z,31.40
2019-06-25T12:48:36.490Z,31.30
2019-06-25T12:51:05.552Z,30.80
2019-06-25T12:53:34.285Z,31.40
2019-06-25T12:56:03.236Z,31.70
2019-06-25T12:58:31.711Z,31.90
2019-06-25T13:01:00.532Z,31.40
2019-06-25T13:03:29.008Z,31.30
2019-06-25T13:05:57.810Z,31.80
2019-06-25T13:08:26.251Z,33.00
2019-06-25T13:10:54.733Z,32.60
2019-06-25T13:13:23.639Z,32.70
2019-06-25T13:15:52.078Z,32.70
2019-06-25T13:18:20.530Z,32.00
2019-06-25T13:20:48.960Z,31.40
2019-06-25T13:23:17.423Z,31.60
2019-06-25T13:25:45.854Z,31.10
2019-06-25T13:28:14.372Z,30.80
2019-06-25T13:30:42.872Z,31.70
2019-06-25T13:33:11.628Z,32.10
2019-06-25T13:35:40.375Z,32.10
2019-06-25T13:38:09.206Z,32.50
2019-06-25T13:40:38.734Z,32.00
2019-06-25T13:43:07.253Z,32.10
2019-06-25T13:45:35.712Z,30.40
2019-06-25T13:48:11.581Z,29.80
2019-06-25T13:50:34.828Z,29.80
2019-06-25T13:53:03.535Z,30.00
2019-06-25T13:55:32.145Z,29.70
2019-06-25T13:58:00.685Z,30.20
2019-06-25T14:00:29.585Z,30.00
2019-06-25T14:03:01.065Z,30.30
2019-06-25T14:05:28.392Z,30.30
2019-06-25T14:07:59.952Z,29.80
2019-06-25T14:10:27.561Z,30.00
2019-06-25T14:12:56.190Z,30.00
2019-06-25T14:15:24.941Z,29.60
2019-06-25T14:17:53.561Z,29.80
2019-06-25T14:20:22.403Z,30.00
2019-06-25T14:22:52.061Z,30.30
2019-06-25T14:25:20.853Z,29.60
2019-06-25T14:27:49.420Z,29.80
2019-06-25T14:30:19.108Z,29.10
2019-06-25T14:32:47.789Z,30.00
2019-06-25T14:35:16.590Z,30.10
2019-06-25T14:37:45.356Z,29.60
2019-06-25T14:40:15.510Z,29.90
2019-06-25T14:42:44.249Z,30.30
2019-06-25T14:45:13.403Z,30.40
2019-06-25T14:47:42.332Z,29.50
2019-06-25T14:50:12.348Z,28.80
2019-06-25T14:52:41.339Z,28.80
2019-06-25T14:55:10.680Z,29.10
2019-06-25T14:57:39.589Z,29.30
2019-06-25T15:00:09.436Z,30.00
2019-06-25T15:02:38.282Z,29.80
2019-06-25T15:05:07.631Z,30.10
2019-06-25T15:07:36.673Z,28.60
2019-06-25T15:10:07.729Z,29.40
2019-06-25T15:12:36.881Z,29.70
2019-06-25T15:15:33.178Z,29.20
2019-06-25T15:17:59.550Z,29.60
2019-06-25T15:20:28.069Z,29.60
2019-06-25T15:22:56.858Z,29.50
2019-06-25T15:25:25.700Z,29.40
2019-06-25T15:27:54.490Z,28.80
2019-06-25T15:30:26.096Z,29.10
2019-06-25T15:32:54.869Z,29.30
2019-06-25T15:35:23.686Z,29.30
2019-06-25T15:37:52.125Z,29.10
2019-06-25T15:40:20.769Z,29.00
2019-06-25T15:42:49.197Z,28.90
2019-06-25T15:45:17.708Z,28.70
2019-06-25T15:47:46.683Z,28.50
2019-06-25T15:50:15.701Z,28.80
2019-06-25T15:52:44.184Z,29.00
2019-06-25T15:55:16.729Z,29.30
2019-06-25T15:57:45.177Z,29.40
2019-06-25T16:00:14.625Z,28.70
2019-06-25T16:02:43.100Z,29.00
2019-06-25T16:05:12.039Z,28.80
2019-06-25T16:07:40.553Z,28.50
2019-06-25T16:10:09.437Z,28.60
2019-06-25T16:12:38.170Z,28.40
2019-06-25T16:15:07.534Z,28.40
2019-06-25T16:17:35.980Z,28.50
2019-06-25T16:20:09.324Z,28.50
2019-06-25T16:22:37.986Z,28.40
2019-06-25T16:25:07.081Z,27.80
2019-06-25T16:27:35.652Z,28.20
2019-06-25T16:30:06.787Z,28.10
2019-06-25T16:32:35.669Z,28.40
2019-06-25T16:35:04.850Z,28.30
2019-06-25T16:37:33.346Z,28.40
2019-06-25T16:40:01.974Z,28.20
2019-06-25T16:42:30.582Z,28.80
2019-06-25T16:44:59.105Z,29.10
2019-06-25T16:47:27.890Z,29.50
2019-06-25T16:49:56.682Z,29.20
2019-06-25T16:52:25.153Z,29.40
2019-06-25T16:54:53.608Z,30.10
2019-06-25T16:57:22.174Z,30.30
2019-06-25T16:59:54.814Z,30.50
2019-06-25T17:02:33.521Z,30.60
2019-06-25T17:04:52.901Z,30.90
2019-06-25T17:07:21.729Z,31.00
2019-06-25T17:09:50.431Z,30.70
2019-06-25T17:12:18.996Z,30.90
2019-06-25T17:14:47.697Z,30.60
2019-06-25T17:17:16.486Z,30.00
2019-06-25T17:19:45.181Z,30.90
2019-06-25T17:22:13.600Z,30.80
2019-06-25T17:24:42.039Z,30.10
2019-06-25T17:27:13.159Z,30.20
2019-06-25T17:29:41.937Z,30.30
2019-06-25T17:32:10.601Z,30.00
2019-06-25T17:34:39.118Z,30.40
2019-06-25T17:37:07.848Z,30.40
2019-06-25T17:39:50.137Z,30.40
2019-06-25T17:42:06.429Z,30.60
2019-06-25T17:44:34.939Z,30.80
2019-06-25T17:47:03.388Z,31.20
2019-06-25T17:49:34.221Z,31.90
2019-06-25T17:52:03.121Z,31.80
2019-06-25T17:54:31.656Z,31.70
2019-06-25T17:57:00.601Z,31.80
2019-06-25T17:59:31.731Z,32.00
2019-06-25T18:02:00.534Z,32.00
2019-06-25T18:04:30.606Z,31.90
2019-06-25T18:06:59.218Z,31.90
2019-06-25T18:09:39.651Z,32.20
2019-06-25T18:11:58.646Z,32.00
2019-06-25T18:14:27.160Z,32.30
2019-06-25T18:16:56.089Z,32.10
2019-06-25T18:19:25.031Z,32.30
2019-06-25T18:21:54.502Z,32.50
2019-06-25T18:24:23.291Z,32.50
2019-06-25T18:26:51.806Z,32.30
2019-06-25T18:29:20.722Z,32.70
2019-06-25T18:31:49.277Z,32.90
2019-06-25T18:34:17.705Z,33.30
2019-06-25T18:36:46.287Z,33.40
2019-06-25T18:39:14.749Z,33.50
2019-06-25T18:41:43.384Z,33.50
2019-06-25T18:44:11.843Z,33.80
2019-06-25T18:46:40.295Z,33.70
2019-06-25T18:49:08.777Z,34.10
2019-06-25T18:51:37.324Z,34.30
2019-06-25T18:54:06.054Z,34.60
2019-06-25T18:56:34.624Z,34.90
2019-06-25T18:59:03.391Z,35.00
2019-06-25T19:01:32.203Z,35.10
2019-06-25T19:04:01.221Z,35.30
2019-06-25T19:06:30.162Z,35.60
2019-06-25T19:08:58.955Z,35.70
2019-06-25T19:11:27.732Z,35.70
2019-06-25T19:13:56.180Z,36.10
2019-06-25T19:16:24.620Z,36.40
2019-06-25T19:18:53.681Z,37.90
2019-06-25T19:21:22.366Z,38.00
2019-06-25T19:23:51.052Z,38.60
2019-06-25T19:26:19.526Z,38.70
2019-06-25T19:28:48.034Z,39.50
2019-06-25T19:31:16.565Z,39.60
2019-06-25T19:33:45.057Z,40.10
2019-06-25T19:36:13.794Z,40.70
2019-06-25T19:38:42.350Z,41.00
2019-06-25T19:41:10.878Z,41.40
2019-06-25T19:43:39.750Z,42.00
2019-06-25T19:46:08.214Z,41.70
2019-06-25T19:48:36.784Z,41.90
2019-06-25T19:51:08.811Z,42.00
2019-06-25T19:53:35.685Z,42.20
2019-06-25T19:56:04.317Z,42.50
2019-06-25T19:58:33.125Z,42.80
2019-06-25T20:01:01.704Z,43.30
2019-06-25T20:03:30.794Z,43.80
2019-06-25T20:05:59.796Z,44.50
2019-06-25T20:08:28.310Z,45.10
2019-06-25T20:11:11.576Z,45.40
2019-06-25T20:13:27.045Z,45.70
2019-06-25T20:15:55.871Z,46.10
2019-06-25T20:18:24.383Z,46.40
2019-06-25T20:20:52.821Z,46.60
2019-06-25T20:23:21.273Z,47.20
2019-06-25T20:25:50.117Z,47.50
2019-06-25T20:28:18.758Z,47.70
2019-06-25T20:30:47.687Z,48.10
2019-06-25T20:33:17.065Z,48.30
2019-06-25T20:35:45.864Z,48.50
2019-06-25T20:38:14.744Z,48.90
2019-06-25T20:40:43.204Z,49.10
2019-06-25T20:43:11.817Z,49.30
2019-06-25T20:45:41.039Z,48.90
2019-06-25T20:48:09.501Z,50.10
2019-06-25T20:50:41.001Z,50.30
2019-06-25T20:53:08.128Z,50.60
2019-06-25T20:55:37.481Z,50.70
2019-06-25T20:58:06.303Z,50.80
2019-06-25T21:00:35.105Z,51.20
2019-06-25T21:03:04.093Z,51.40
2019-06-25T21:05:32.799Z,51.70
2019-06-25T21:08:01.228Z,52.00
2019-06-25T21:10:30.040Z,52.20
2019-06-25T21:12:58.935Z,52.40
2019-06-25T21:15:27.377Z,52.70
2019-06-25T21:17:55.787Z,52.90
2019-06-25T21:20:24.215Z,53.20
2019-06-25T21:22:52.660Z,53.40
2019-06-25T21:25:21.236Z,53.70
2019-06-25T21:27:49.680Z,53.70
2019-06-25T21:30:19.367Z,54.00
2019-06-25T21:32:48.254Z,54.10
2019-06-25T21:35:17.044Z,54.30
2019-06-25T21:37:45.940Z,54.70
2019-06-25T21:40:15.084Z,54.80
2019-06-25T21:42:43.580Z,55.80
2019-06-25T21:45:12.704Z,55.40
2019-06-25T21:47:41.185Z,55.80
2019-06-25T21:50:10.534Z,56.20
2019-06-25T21:52:38.961Z,56.50
2019-06-25T21:55:09.406Z,56.80
2019-06-25T21:57:37.955Z,57.10
2019-06-25T22:00:10.224Z,57.20
2019-06-25T22:02:49.586Z,57.50
2019-06-25T22:05:18.260Z,57.90
2019-06-25T22:07:46.798Z,58.60
2019-06-25T22:10:15.785Z,59.10
2019-06-25T22:12:44.550Z,59.60
2019-06-25T22:15:14.105Z,60.20
2019-06-25T22:17:42.932Z,61.10
2019-06-25T22:20:13.399Z,61.70
2019-06-25T22:22:42.100Z,62.40
2019-06-25T22:25:10.629Z,63.10
2019-06-25T22:27:39.220Z,63.80
2019-06-25T22:30:12.434Z,64.40
2019-06-25T22:32:40.905Z,64.70
2019-06-25T22:35:10.397Z,65.40
2019-06-25T22:37:38.902Z,65.60
2019-06-25T22:40:12.236Z,66.00
2019-06-25T22:42:40.679Z,66.80
2019-06-25T22:45:10.081Z,67.10
2019-06-25T22:47:38.676Z,67.50
2019-06-25T22:50:07.725Z,67.30
2019-06-25T22:52:36.161Z,67.70
2019-06-25T22:55:05.975Z,67.50
2019-06-25T22:57:34.581Z,67.90
2019-06-25T23:00:03.110Z,67.90
2019-06-25T23:02:31.559Z,67.80
2019-06-25T23:04:59.999Z,68.40
2019-06-25T23:07:29.043Z,69.60
2019-06-25T23:09:57.653Z,69.30
2019-06-25T23:12:26.104Z,69.50
2019-06-25T23:14:54.860Z,69.70
2019-06-25T23:17:23.334Z,69.60
2019-06-25T23:19:51.986Z,69.40
2019-06-25T23:22:20.771Z,69.40
2019-06-25T23:24:49.577Z,70.20
2019-06-25T23:27:19.254Z,70.20
2019-06-25T23:29:48.082Z,70.40
2019-06-25T23:32:16.614Z,70.10
2019-06-25T23:34:45.054Z,69.80
2019-06-25T23:37:13.749Z,70.00
2019-06-25T23:39:42.728Z,70.20
2019-06-25T23:42:11.930Z,70.20
2019-06-25T23:44:40.708Z,70.40
2019-06-25T23:47:09.179Z,71.00
2019-06-25T23:49:37.695Z,71.20
2019-06-25T23:52:06.556Z,71.80
2019-06-25T23:54:35.360Z,72.10
2019-06-25T23:57:04.136Z,72.00
2019-06-25T23:59:32.827Z,72.00
